Terminal Aerodrome Forecast
Issued by NWS

Home | Current Version | Previous Version | Text Only | Print | Product List | Glossary On
Versions: 1 2 3 4 5 6 7 8 9 10 11 12 13 14 15
000
FTUS41 KILN 301700
TAFLCK
TAF
KLCK 301720Z 3018/3118 21014KT P6SM VCTS BKN050CB
      TEMPO 3018/3022 VRB05G15KT 5SM -TSRA BKN035CB
     FM310100 19008KT P6SM SCT050
     FM310800 18008KT P6SM VCSH BKN050
     FM311500 20010KT P6SM VCSH OVC025=

USA.gov is the U.S. government's official web portal to all federal, state and local government web resources and services.